Williams, California
Current Conditions -  °F | °C
As of 10:53 PM on Saturday 20 Dec 2014 (Local Time) from KMYV Reporting Station
Overcast Overcast  
Wind Chill: 55°   Ceiling: 2800
Heat Index: 55°   Visibility: 10mi
Dew Point: 52°   Wind: 9mph
Humidity: 89%   Direction: 100°E
Pressure: 30.25"   Gusts: NA
Location:  39.15°N, 122.15°W
Report Text: KMYV 210653Z AUTO 10008KT 10SM OVC028 13/11 A3025 RMK AO2 SLP246 T01280111
Loading
Personal Weather Stations






























Interactive Weather Map New forecast layout! Learn more

10-Day Weather Forecast

Advertisements
Track Severe Weather on mobile